sensor_id;sensor_type;location;lat;lon;timestamp;pressure;altitude;pressure_sealevel;temperature;humidity
25526;BME280;13424;48.424;11.258;2023-02-21T00:00:00;96049.13;;;9.69;61.46
25526;BME280;13424;48.424;11.258;2023-02-21T00:02:45;96046.16;;;9.77;61.23
25526;BME280;13424;48.424;11.258;2023-02-21T00:05:29;96042.03;;;9.82;61.14
25526;BME280;13424;48.424;11.258;2023-02-21T00:08:17;96054.03;;;9.72;61.21
25526;BME280;13424;48.424;11.258;2023-02-21T00:11:01;96044.75;;;9.75;61.28
25526;BME280;13424;48.424;11.258;2023-02-21T00:13:45;96042.56;;;9.72;61.32
25526;BME280;13424;48.424;11.258;2023-02-21T00:16:30;96046.22;;;9.71;61.13
25526;BME280;13424;48.424;11.258;2023-02-21T00:19:14;96036.31;;;9.78;61.06
25526;BME280;13424;48.424;11.258;2023-02-21T00:21:58;96038.47;;;9.69;60.94
25526;BME280;13424;48.424;11.258;2023-02-21T00:24:42;96031.94;;;9.84;60.97
25526;BME280;13424;48.424;11.258;2023-02-21T00:27:27;96037.81;;;9.74;61.03
25526;BME280;13424;48.424;11.258;2023-02-21T00:30:14;96041.00;;;9.64;61.13
25526;BME280;13424;48.424;11.258;2023-02-21T00:33:02;96042.16;;;9.68;61.13
25526;BME280;13424;48.424;11.258;2023-02-21T00:35:46;96029.59;;;9.75;61.11
25526;BME280;13424;48.424;11.258;2023-02-21T00:38:30;96040.53;;;9.31;62.17
25526;BME280;13424;48.424;11.258;2023-02-21T00:41:15;96033.28;;;9.19;62.41
25526;BME280;13424;48.424;11.258;2023-02-21T00:44:02;96031.50;;;9.13;62.97
25526;BME280;13424;48.424;11.258;2023-02-21T00:46:46;96039.94;;;9.10;63.03
25526;BME280;13424;48.424;11.258;2023-02-21T00:49:31;96026.56;;;9.17;62.71
25526;BME280;13424;48.424;11.258;2023-02-21T00:52:15;96028.59;;;9.15;62.84
25526;BME280;13424;48.424;11.258;2023-02-21T00:55:46;96034.97;;;9.14;63.00
25526;BME280;13424;48.424;11.258;2023-02-21T00:58:30;96019.44;;;9.47;62.09
25526;BME280;13424;48.424;11.258;2023-02-21T01:01:15;96026.94;;;9.75;61.41
25526;BME280;13424;48.424;11.258;2023-02-21T01:04:27;96011.09;;;9.62;61.57
25526;BME280;13424;48.424;11.258;2023-02-21T01:07:13;96010.28;;;9.62;61.31
25526;BME280;13424;48.424;11.258;2023-02-21T01:09:57;96006.53;;;9.33;62.31
25526;BME280;13424;48.424;11.258;2023-02-21T01:12:41;96015.25;;;9.58;61.70
25526;BME280;13424;48.424;11.258;2023-02-21T01:15:26;96010.81;;;9.52;61.42
25526;BME280;13424;48.424;11.258;2023-02-21T01:18:10;96016.59;;;9.49;61.72
25526;BME280;13424;48.424;11.258;2023-02-21T01:20:54;96006.53;;;9.33;61.98
25526;BME280;13424;48.424;11.258;2023-02-21T01:23:39;96007.63;;;9.25;62.20
25526;BME280;13424;48.424;11.258;2023-02-21T01:26:23;96008.59;;;9.49;61.79
25526;BME280;13424;48.424;11.258;2023-02-21T01:29:07;95999.94;;;9.35;62.06
25526;BME280;13424;48.424;11.258;2023-02-21T01:31:52;96003.66;;;9.34;61.87
25526;BME280;13424;48.424;11.258;2023-02-21T01:34:38;96000.88;;;9.22;62.43
25526;BME280;13424;48.424;11.258;2023-02-21T01:37:22;96002.91;;;9.27;62.61
25526;BME280;13424;48.424;11.258;2023-02-21T01:40:07;95994.69;;;9.29;61.96
25526;BME280;13424;48.424;11.258;2023-02-21T01:42:52;95989.13;;;9.30;62.09
25526;BME280;13424;48.424;11.258;2023-02-21T01:45:47;95986.53;;;9.05;63.43
25526;BME280;13424;48.424;11.258;2023-02-21T01:48:32;95990.69;;;9.19;62.44
25526;BME280;13424;48.424;11.258;2023-02-21T01:51:24;95992.44;;;9.07;62.93
25526;BME280;13424;48.424;11.258;2023-02-21T01:54:10;95982.56;;;9.14;62.72
25526;BME280;13424;48.424;11.258;2023-02-21T01:56:55;95988.16;;;8.88;64.04
25526;BME280;13424;48.424;11.258;2023-02-21T01:59:40;95981.53;;;8.72;64.49
25526;BME280;13424;48.424;11.258;2023-02-21T02:02:39;95976.34;;;9.02;63.57
25526;BME280;13424;48.424;11.258;2023-02-21T02:05:26;95974.44;;;9.09;63.03
25526;BME280;13424;48.424;11.258;2023-02-21T02:08:11;95977.03;;;8.73;64.04
25526;BME280;13424;48.424;11.258;2023-02-21T02:35:41;95956.91;;;8.58;65.71
25526;BME280;13424;48.424;11.258;2023-02-21T02:38:55;95957.63;;;8.16;66.43
25526;BME280;13424;48.424;11.258;2023-02-21T02:44:14;95951.75;;;8.63;66.10
25526;BME280;13424;48.424;11.258;2023-02-21T02:46:44;95955.53;;;8.24;67.01
25526;BME280;13424;48.424;11.258;2023-02-21T02:49:23;95960.34;;;8.34;66.82
25526;BME280;13424;48.424;11.258;2023-02-21T02:51:51;95952.47;;;8.21;67.37
25526;BME280;13424;48.424;11.258;2023-02-21T02:54:20;95971.78;;;8.09;67.72
25526;BME280;13424;48.424;11.258;2023-02-21T02:56:46;95947.63;;;8.11;67.96
25526;BME280;13424;48.424;11.258;2023-02-21T02:59:20;95950.63;;;8.21;67.69
25526;BME280;13424;48.424;11.258;2023-02-21T03:05:25;95954.25;;;8.27;66.86
25526;BME280;13424;48.424;11.258;2023-02-21T03:11:26;95958.09;;;8.62;66.08
25526;BME280;13424;48.424;11.258;2023-02-21T03:14:14;95959.16;;;8.30;67.12
25526;BME280;13424;48.424;11.258;2023-02-21T03:16:49;95957.09;;;8.32;67.77
25526;BME280;13424;48.424;11.258;2023-02-21T03:19:19;95956.03;;;8.64;66.16
25526;BME280;13424;48.424;11.258;2023-02-21T03:21:55;95953.09;;;8.73;65.79
25526;BME280;13424;48.424;11.258;2023-02-21T03:24:23;95953.66;;;8.56;66.21
25526;BME280;13424;48.424;11.258;2023-02-21T03:26:52;95953.47;;;8.76;65.61
25526;BME280;13424;48.424;11.258;2023-02-21T03:29:49;95955.66;;;8.61;65.92
25526;BME280;13424;48.424;11.258;2023-02-21T03:32:25;95948.44;;;8.43;66.26
25526;BME280;13424;48.424;11.258;2023-02-21T03:34:54;95950.34;;;8.29;66.61
25526;BME280;13424;48.424;11.258;2023-02-21T03:37:44;95951.50;;;8.15;67.06
25526;BME280;13424;48.424;11.258;2023-02-21T03:40:18;95957.50;;;8.35;66.97
25526;BME280;13424;48.424;11.258;2023-02-21T03:42:47;95946.56;;;8.19;67.71
25526;BME280;13424;48.424;11.258;2023-02-21T03:45:16;95940.94;;;8.33;67.42
25526;BME280;13424;48.424;11.258;2023-02-21T03:47:45;95952.91;;;8.49;66.77
25526;BME280;13424;48.424;11.258;2023-02-21T03:50:11;95945.25;;;8.28;67.40
25526;BME280;13424;48.424;11.258;2023-02-21T03:52:40;95947.47;;;8.62;66.17
25526;BME280;13424;48.424;11.258;2023-02-21T03:55:08;95946.97;;;8.72;66.03
25526;BME280;13424;48.424;11.258;2023-02-21T03:57:34;95940.06;;;8.46;66.87
25526;BME280;13424;48.424;11.258;2023-02-21T04:00:00;95949.81;;;8.21;67.69
25526;BME280;13424;48.424;11.258;2023-02-21T04:02:28;95949.91;;;8.64;66.75
25526;BME280;13424;48.424;11.258;2023-02-21T04:04:55;95948.31;;;8.38;67.29
25526;BME280;13424;48.424;11.258;2023-02-21T04:07:23;95937.25;;;8.59;67.04
25526;BME280;13424;48.424;11.258;2023-02-21T04:09:50;95938.50;;;8.57;66.82
25526;BME280;13424;48.424;11.258;2023-02-21T04:12:24;95936.88;;;8.56;66.70
25526;BME280;13424;48.424;11.258;2023-02-21T04:14:50;95936.59;;;8.46;66.78
25526;BME280;13424;48.424;11.258;2023-02-21T04:17:17;95942.72;;;8.46;67.03
25526;BME280;13424;48.424;11.258;2023-02-21T04:19:44;95942.91;;;8.13;68.02
25526;BME280;13424;48.424;11.258;2023-02-21T04:22:10;95943.06;;;7.93;69.28
25526;BME280;13424;48.424;11.258;2023-02-21T04:24:41;95947.09;;;8.02;68.77
25526;BME280;13424;48.424;11.258;2023-02-21T04:27:07;95944.91;;;7.93;69.44
25526;BME280;13424;48.424;11.258;2023-02-21T04:29:36;95945.97;;;7.85;69.32
25526;BME280;13424;48.424;11.258;2023-02-21T04:32:02;95948.81;;;7.90;69.67
25526;BME280;13424;48.424;11.258;2023-02-21T04:34:29;95949.41;;;7.92;69.41
25526;BME280;13424;48.424;11.258;2023-02-21T04:36:55;95940.88;;;7.83;69.98
25526;BME280;13424;48.424;11.258;2023-02-21T04:39:21;95949.66;;;7.84;69.37
25526;BME280;13424;48.424;11.258;2023-02-21T04:41:48;95942.63;;;7.65;69.96
25526;BME280;13424;48.424;11.258;2023-02-21T04:44:14;95943.94;;;7.80;70.01
25526;BME280;13424;48.424;11.258;2023-02-21T04:46:43;95934.84;;;7.70;69.87
25526;BME280;13424;48.424;11.258;2023-02-21T04:49:11;95941.56;;;7.66;69.82
25526;BME280;13424;48.424;11.258;2023-02-21T04:51:37;95934.97;;;7.43;70.08
25526;BME280;13424;48.424;11.258;2023-02-21T04:54:03;95938.59;;;7.87;68.49
25526;BME280;13424;48.424;11.258;2023-02-21T04:56:29;95941.13;;;7.75;68.11
25526;BME280;13424;48.424;11.258;2023-02-21T04:58:57;95937.69;;;7.30;70.84
25526;BME280;13424;48.424;11.258;2023-02-21T05:01:27;95931.41;;;7.63;69.83
25526;BME280;13424;48.424;11.258;2023-02-21T05:03:53;95925.41;;;7.74;68.32
25526;BME280;13424;48.424;11.258;2023-02-21T05:06:20;95932.97;;;7.77;68.58
25526;BME280;13424;48.424;11.258;2023-02-21T05:08:47;95926.41;;;7.79;68.14
25526;BME280;13424;48.424;11.258;2023-02-21T05:11:23;95922.44;;;7.89;67.49
25526;BME280;13424;48.424;11.258;2023-02-21T05:13:49;95915.03;;;7.66;68.15
25526;BME280;13424;48.424;11.258;2023-02-21T05:16:16;95916.28;;;7.63;67.72
25526;BME280;13424;48.424;11.258;2023-02-21T05:18:43;95917.06;;;7.70;67.80
25526;BME280;13424;48.424;11.258;2023-02-21T05:21:14;95921.63;;;7.56;68.31
25526;BME280;13424;48.424;11.258;2023-02-21T05:23:40;95911.91;;;7.44;68.98
25526;BME280;13424;48.424;11.258;2023-02-21T05:26:12;95916.69;;;7.67;68.17
25526;BME280;13424;48.424;11.258;2023-02-21T05:28:39;95909.00;;;7.52;69.14
25526;BME280;13424;48.424;11.258;2023-02-21T05:31:06;95908.84;;;7.40;69.87
25526;BME280;13424;48.424;11.258;2023-02-21T05:33:33;95912.28;;;7.47;69.52
25526;BME280;13424;48.424;11.258;2023-02-21T05:35:59;95907.41;;;7.44;70.45
25526;BME280;13424;48.424;11.258;2023-02-21T05:38:25;95907.50;;;7.63;69.83
25526;BME280;13424;48.424;11.258;2023-02-21T05:40:51;95903.00;;;7.95;68.48
25526;BME280;13424;48.424;11.258;2023-02-21T05:43:17;95910.09;;;7.76;69.29
25526;BME280;13424;48.424;11.258;2023-02-21T05:45:43;95910.59;;;7.60;69.58
25526;BME280;13424;48.424;11.258;2023-02-21T05:48:09;95918.72;;;7.65;69.20
25526;BME280;13424;48.424;11.258;2023-02-21T05:50:34;95916.88;;;7.27;70.20
25526;BME280;13424;48.424;11.258;2023-02-21T05:53:00;95908.31;;;7.25;70.86
25526;BME280;13424;48.424;11.258;2023-02-21T05:55:26;95907.69;;;7.30;69.88
25526;BME280;13424;48.424;11.258;2023-02-21T05:57:52;95926.56;;;7.02;70.94
25526;BME280;13424;48.424;11.258;2023-02-21T06:00:22;95921.81;;;7.17;71.09
25526;BME280;13424;48.424;11.258;2023-02-21T06:02:49;95923.06;;;7.14;70.92
25526;BME280;13424;48.424;11.258;2023-02-21T06:05:17;95916.59;;;6.97;72.05
25526;BME280;13424;48.424;11.258;2023-02-21T06:07:43;95912.03;;;7.11;71.10
25526;BME280;13424;48.424;11.258;2023-02-21T06:10:09;95915.63;;;7.30;70.57
25526;BME280;13424;48.424;11.258;2023-02-21T06:12:35;95922.34;;;7.32;70.82
25526;BME280;13424;48.424;11.258;2023-02-21T06:15:01;95922.13;;;7.34;70.44
25526;BME280;13424;48.424;11.258;2023-02-21T06:17:28;95923.69;;;7.54;68.73
25526;BME280;13424;48.424;11.258;2023-02-21T06:19:56;95926.84;;;7.32;69.28
25526;BME280;13424;48.424;11.258;2023-02-21T06:22:22;95932.00;;;7.20;68.99
25526;BME280;13424;48.424;11.258;2023-02-21T06:24:48;95935.22;;;7.35;68.29
25526;BME280;13424;48.424;11.258;2023-02-21T06:27:14;95931.34;;;7.31;68.35
25526;BME280;13424;48.424;11.258;2023-02-21T06:29:40;95927.72;;;7.64;68.53
25526;BME280;13424;48.424;11.258;2023-02-21T06:32:06;95946.63;;;7.74;67.56
25526;BME280;13424;48.424;11.258;2023-02-21T06:34:32;95942.81;;;7.63;67.92
25526;BME280;13424;48.424;11.258;2023-02-21T06:36:58;95940.03;;;7.51;68.18
25526;BME280;13424;48.424;11.258;2023-02-21T06:39:24;95942.44;;;7.60;68.26
25526;BME280;13424;48.424;11.258;2023-02-21T06:41:50;95946.31;;;7.95;67.78
25526;BME280;13424;48.424;11.258;2023-02-21T06:44:16;95954.03;;;8.03;67.30
25526;BME280;13424;48.424;11.258;2023-02-21T06:46:42;95946.72;;;7.99;67.24
25526;BME280;13424;48.424;11.258;2023-02-21T06:49:08;95949.53;;;8.04;67.42
25526;BME280;13424;48.424;11.258;2023-02-21T06:52:30;95954.88;;;7.97;67.87
25526;BME280;13424;48.424;11.258;2023-02-21T06:54:56;95964.66;;;8.35;67.08
25526;BME280;13424;48.424;11.258;2023-02-21T06:57:22;95969.22;;;8.53;66.72
25526;BME280;13424;48.424;11.258;2023-02-21T06:59:48;95974.25;;;8.61;66.62
25526;BME280;13424;48.424;11.258;2023-02-21T07:02:18;95974.78;;;8.94;65.69
25526;BME280;13424;48.424;11.258;2023-02-21T07:04:47;95975.81;;;8.93;65.59
25526;BME280;13424;48.424;11.258;2023-02-21T07:07:14;95984.16;;;8.97;65.81
25526;BME280;13424;48.424;11.258;2023-02-21T07:09:40;95976.81;;;9.17;65.20
25526;BME280;13424;48.424;11.258;2023-02-21T07:12:06;95984.78;;;9.36;64.95
25526;BME280;13424;48.424;11.258;2023-02-21T07:14:33;95980.28;;;9.18;64.75
25526;BME280;13424;48.424;11.258;2023-02-21T07:16:59;95982.47;;;9.39;64.47
25526;BME280;13424;48.424;11.258;2023-02-21T07:19:25;95981.38;;;9.10;65.37
25526;BME280;13424;48.424;11.258;2023-02-21T07:21:51;95988.66;;;9.70;64.16
25526;BME280;13424;48.424;11.258;2023-02-21T07:24:16;95989.75;;;9.50;64.80
25526;BME280;13424;48.424;11.258;2023-02-21T07:26:42;95987.50;;;9.47;64.91
25526;BME280;13424;48.424;11.258;2023-02-21T07:29:08;95992.13;;;9.40;65.22
25526;BME280;13424;48.424;11.258;2023-02-21T07:31:34;95995.44;;;9.36;65.43
25526;BME280;13424;48.424;11.258;2023-02-21T07:34:00;95986.41;;;9.85;63.85
25526;BME280;13424;48.424;11.258;2023-02-21T07:36:25;95986.09;;;10.12;63.22
25526;BME280;13424;48.424;11.258;2023-02-21T07:38:51;95985.19;;;9.69;64.80
25526;BME280;13424;48.424;11.258;2023-02-21T07:41:17;95987.16;;;9.92;64.58
25526;BME280;13424;48.424;11.258;2023-02-21T07:43:43;95983.94;;;10.02;64.60
25526;BME280;13424;48.424;11.258;2023-02-21T07:46:11;95982.31;;;10.01;64.86
25526;BME280;13424;48.424;11.258;2023-02-21T07:48:37;95978.06;;;10.42;63.86
25526;BME280;13424;48.424;11.258;2023-02-21T07:51:03;95985.72;;;10.50;63.94
25526;BME280;13424;48.424;11.258;2023-02-21T07:53:28;95980.03;;;10.46;64.76
25526;BME280;13424;48.424;11.258;2023-02-21T07:55:54;95980.94;;;10.28;65.33
25526;BME280;13424;48.424;11.258;2023-02-21T07:58:20;95980.13;;;10.40;64.92
25526;BME280;13424;48.424;11.258;2023-02-21T08:00:46;95981.75;;;10.29;64.84
25526;BME280;13424;48.424;11.258;2023-02-21T08:03:13;95982.00;;;10.27;65.52
25526;BME280;13424;48.424;11.258;2023-02-21T08:06:26;95978.09;;;10.53;64.73
25526;BME280;13424;48.424;11.258;2023-02-21T08:08:52;95986.13;;;10.88;64.57
25526;BME280;13424;48.424;11.258;2023-02-21T08:11:17;95996.44;;;10.97;64.12
25526;BME280;13424;48.424;11.258;2023-02-21T08:13:43;95989.16;;;10.92;63.21
25526;BME280;13424;48.424;11.258;2023-02-21T08:16:09;95994.81;;;11.19;62.56
25526;BME280;13424;48.424;11.258;2023-02-21T08:18:35;95999.72;;;10.99;63.26
25526;BME280;13424;48.424;11.258;2023-02-21T08:24:26;95994.94;;;10.77;64.39
25526;BME280;13424;48.424;11.258;2023-02-21T08:26:52;96001.88;;;10.90;64.16
25526;BME280;13424;48.424;11.258;2023-02-21T08:29:18;95993.66;;;11.03;64.34
25526;BME280;13424;48.424;11.258;2023-02-21T08:31:44;95995.03;;;11.29;62.79
25526;BME280;13424;48.424;11.258;2023-02-21T08:34:10;95994.56;;;11.32;62.60
25526;BME280;13424;48.424;11.258;2023-02-21T08:36:40;96011.81;;;11.53;63.00
25526;BME280;13424;48.424;11.258;2023-02-21T08:39:08;96005.91;;;11.63;61.89
25526;BME280;13424;48.424;11.258;2023-02-21T08:41:48;96012.34;;;11.90;61.99
25526;BME280;13424;48.424;11.258;2023-02-21T08:44:16;96006.81;;;11.80;61.28
25526;BME280;13424;48.424;11.258;2023-02-21T08:46:42;96005.63;;;11.88;61.83
25526;BME280;13424;48.424;11.258;2023-02-21T08:49:08;96009.78;;;11.95;61.28
25526;BME280;13424;48.424;11.258;2023-02-21T08:51:35;96005.19;;;12.36;60.67
25526;BME280;13424;48.424;11.258;2023-02-21T08:54:02;96006.28;;;12.23;61.25
25526;BME280;13424;48.424;11.258;2023-02-21T08:56:28;96019.78;;;12.45;59.95
25526;BME280;13424;48.424;11.258;2023-02-21T08:58:55;96003.41;;;12.25;60.81
25526;BME280;13424;48.424;11.258;2023-02-21T09:01:23;96017.94;;;12.46;60.39
25526;BME280;13424;48.424;11.258;2023-02-21T09:03:49;96010.16;;;12.61;58.79
25526;BME280;13424;48.424;11.258;2023-02-21T09:06:16;96015.53;;;12.61;59.60
25526;BME280;13424;48.424;11.258;2023-02-21T09:08:42;96012.53;;;12.57;60.16
25526;BME280;13424;48.424;11.258;2023-02-21T09:11:07;96007.84;;;12.65;60.27
25526;BME280;13424;48.424;11.258;2023-02-21T09:13:34;96008.50;;;12.72;59.77
25526;BME280;13424;48.424;11.258;2023-02-21T09:16:02;96001.97;;;13.01;58.91
25526;BME280;13424;48.424;11.258;2023-02-21T09:18:29;96001.72;;;13.03;58.93
25526;BME280;13424;48.424;11.258;2023-02-21T09:20:55;96005.81;;;13.05;59.39
25526;BME280;13424;48.424;11.258;2023-02-21T09:23:24;96005.06;;;13.27;59.91
25526;BME280;13424;48.424;11.258;2023-02-21T09:25:50;96003.72;;;13.46;58.15
25526;BME280;13424;48.424;11.258;2023-02-21T09:28:17;96004.75;;;13.06;59.23
25526;BME280;13424;48.424;11.258;2023-02-21T09:30:43;96006.16;;;13.48;58.29
25526;BME280;13424;48.424;11.258;2023-02-21T09:34:02;96002.19;;;13.72;57.96
25526;BME280;13424;48.424;11.258;2023-02-21T09:36:28;96000.84;;;13.14;59.10
25526;BME280;13424;48.424;11.258;2023-02-21T09:38:53;96006.72;;;13.50;57.69
25526;BME280;13424;48.424;11.258;2023-02-21T09:41:19;95997.78;;;13.83;58.65
25526;BME280;13424;48.424;11.258;2023-02-21T09:43:50;95999.38;;;13.84;56.45
25526;BME280;13424;48.424;11.258;2023-02-21T09:46:38;95993.59;;;14.19;56.25
25526;BME280;13424;48.424;11.258;2023-02-21T09:49:24;95992.69;;;14.08;55.67
25526;BME280;13424;48.424;11.258;2023-02-21T09:51:52;95993.69;;;14.51;56.30
25526;BME280;13424;48.424;11.258;2023-02-21T09:54:36;95988.91;;;14.31;55.81
25526;BME280;13424;48.424;11.258;2023-02-21T09:57:06;96008.97;;;14.77;55.73
25526;BME280;13424;48.424;11.258;2023-02-21T09:59:35;96007.06;;;13.75;55.11
25526;BME280;13424;48.424;11.258;2023-02-21T10:07:46;96005.09;;;14.41;55.84
25526;BME280;13424;48.424;11.258;2023-02-21T10:16:37;96010.59;;;14.78;52.63
25526;BME280;13424;48.424;11.258;2023-02-21T10:19:36;96005.34;;;14.99;53.87
25526;BME280;13424;48.424;11.258;2023-02-21T10:24:45;96010.41;;;14.09;53.99
25526;BME280;13424;48.424;11.258;2023-02-21T10:27:23;96011.72;;;13.85;54.11
25526;BME280;13424;48.424;11.258;2023-02-21T10:29:56;96000.84;;;14.18;54.31
25526;BME280;13424;48.424;11.258;2023-02-21T10:32:24;96006.06;;;13.43;53.93
25526;BME280;13424;48.424;11.258;2023-02-21T10:34:51;96009.22;;;14.00;54.52
25526;BME280;13424;48.424;11.258;2023-02-21T10:37:44;96012.72;;;15.14;51.28
25526;BME280;13424;48.424;11.258;2023-02-21T10:40:44;96009.97;;;14.71;53.04
25526;BME280;13424;48.424;11.258;2023-02-21T10:43:30;96015.19;;;15.20;51.46
25526;BME280;13424;48.424;11.258;2023-02-21T10:46:24;96013.38;;;15.78;51.12
25526;BME280;13424;48.424;11.258;2023-02-21T10:48:57;96016.84;;;15.26;50.69
25526;BME280;13424;48.424;11.258;2023-02-21T10:51:33;96015.38;;;15.56;51.55
25526;BME280;13424;48.424;11.258;2023-02-21T10:54:21;96006.09;;;15.26;51.49
25526;BME280;13424;48.424;11.258;2023-02-21T10:56:49;95999.59;;;15.17;50.92
25526;BME280;13424;48.424;11.258;2023-02-21T10:59:35;95996.44;;;15.30;52.41
25526;BME280;13424;48.424;11.258;2023-02-21T11:02:08;95999.22;;;15.46;51.73
25526;BME280;13424;48.424;11.258;2023-02-21T11:04:48;95992.00;;;16.19;50.36
25526;BME280;13424;48.424;11.258;2023-02-21T11:07:15;95986.22;;;15.80;50.53
25526;BME280;13424;48.424;11.258;2023-02-21T11:09:46;95978.13;;;16.68;49.60
25526;BME280;13424;48.424;11.258;2023-02-21T11:12:17;95976.47;;;16.57;49.57
25526;BME280;13424;48.424;11.258;2023-02-21T11:17:27;95967.25;;;16.17;49.67
25526;BME280;13424;48.424;11.258;2023-02-21T11:22:39;95958.44;;;16.52;49.60
25526;BME280;13424;48.424;11.258;2023-02-21T11:27:43;95948.22;;;16.95;49.36
25526;BME280;13424;48.424;11.258;2023-02-21T11:30:20;95942.56;;;16.45;49.53
25526;BME280;13424;48.424;11.258;2023-02-21T11:32:54;95936.88;;;16.57;48.67
25526;BME280;13424;48.424;11.258;2023-02-21T11:35:32;95931.00;;;16.60;49.45
25526;BME280;13424;48.424;11.258;2023-02-21T11:38:08;95937.72;;;16.53;48.73
25526;BME280;13424;48.424;11.258;2023-02-21T11:40:53;95925.88;;;16.74;49.11
25526;BME280;13424;48.424;11.258;2023-02-21T11:43:29;95939.56;;;17.13;48.71
25526;BME280;13424;48.424;11.258;2023-02-21T11:46:38;95930.44;;;16.53;50.25
25526;BME280;13424;48.424;11.258;2023-02-21T11:49:16;95934.75;;;16.59;49.65
25526;BME280;13424;48.424;11.258;2023-02-21T11:52:15;95921.81;;;16.41;49.57
25526;BME280;13424;48.424;11.258;2023-02-21T11:58:25;95928.56;;;16.54;49.11
25526;BME280;13424;48.424;11.258;2023-02-21T12:01:02;95923.16;;;17.05;48.28
25526;BME280;13424;48.424;11.258;2023-02-21T12:04:07;95919.94;;;16.82;47.68
25526;BME280;13424;48.424;11.258;2023-02-21T12:10:21;95910.22;;;17.17;48.12
25526;BME280;13424;48.424;11.258;2023-02-21T12:16:06;95898.41;;;16.87;48.90
25526;BME280;13424;48.424;11.258;2023-02-21T12:21:52;95897.16;;;17.49;47.19
25526;BME280;13424;48.424;11.258;2023-02-21T12:39:29;95865.56;;;16.44;49.86
25526;BME280;13424;48.424;11.258;2023-02-21T12:42:29;95877.38;;;17.69;47.72
25526;BME280;13424;48.424;11.258;2023-02-21T12:50:53;95847.53;;;17.55;49.16
25526;BME280;13424;48.424;11.258;2023-02-21T12:53:42;95840.03;;;17.42;47.52
25526;BME280;13424;48.424;11.258;2023-02-21T12:56:23;95836.63;;;17.76;48.12
25526;BME280;13424;48.424;11.258;2023-02-21T12:59:50;95831.06;;;17.52;48.50
25526;BME280;13424;48.424;11.258;2023-02-21T13:08:10;95812.63;;;18.19;48.54
25526;BME280;13424;48.424;11.258;2023-02-21T13:11:18;95803.75;;;17.74;48.21
25526;BME280;13424;48.424;11.258;2023-02-21T13:13:47;95808.00;;;18.48;46.40
25526;BME280;13424;48.424;11.258;2023-02-21T13:16:14;95797.59;;;18.36;47.77
25526;BME280;13424;48.424;11.258;2023-02-21T13:18:59;95802.66;;;17.75;48.15
25526;BME280;13424;48.424;11.258;2023-02-21T13:22:00;95797.78;;;17.77;49.42
25526;BME280;13424;48.424;11.258;2023-02-21T13:25:40;95793.81;;;18.37;48.37
25526;BME280;13424;48.424;11.258;2023-02-21T13:27:56;95795.91;;;17.77;48.83
25526;BME280;13424;48.424;11.258;2023-02-21T13:30:39;95783.53;;;18.10;48.89
25526;BME280;13424;48.424;11.258;2023-02-21T13:33:06;95779.47;;;18.08;48.49
25526;BME280;13424;48.424;11.258;2023-02-21T13:35:44;95776.25;;;17.72;49.07
25526;BME280;13424;48.424;11.258;2023-02-21T13:38:11;95774.34;;;17.72;48.30
25526;BME280;13424;48.424;11.258;2023-02-21T13:41:05;95765.19;;;18.07;48.04
25526;BME280;13424;48.424;11.258;2023-02-21T13:43:35;95768.06;;;17.87;48.49
25526;BME280;13424;48.424;11.258;2023-02-21T13:49:35;95765.34;;;18.50;48.15
25526;BME280;13424;48.424;11.258;2023-02-21T14:08:49;95728.34;;;17.93;49.62
25526;BME280;13424;48.424;11.258;2023-02-21T14:11:22;95733.34;;;18.09;48.81
25526;BME280;13424;48.424;11.258;2023-02-21T14:14:17;95725.03;;;18.01;48.73
25526;BME280;13424;48.424;11.258;2023-02-21T14:16:58;95728.69;;;18.44;48.44
25526;BME280;13424;48.424;11.258;2023-02-21T14:22:28;95716.16;;;18.53;48.19
25526;BME280;13424;48.424;11.258;2023-02-21T14:25:17;95721.44;;;18.10;49.05
25526;BME280;13424;48.424;11.258;2023-02-21T14:27:44;95723.22;;;18.25;48.28
25526;BME280;13424;48.424;11.258;2023-02-21T14:30:23;95712.53;;;17.81;49.09
25526;BME280;13424;48.424;11.258;2023-02-21T14:32:52;95716.22;;;17.90;49.01
25526;BME280;13424;48.424;11.258;2023-02-21T14:38:03;95707.84;;;17.92;49.06
25526;BME280;13424;48.424;11.258;2023-02-21T14:40:54;95708.28;;;18.04;49.37
25526;BME280;13424;48.424;11.258;2023-02-21T14:52:47;95701.34;;;18.22;49.06
25526;BME280;13424;48.424;11.258;2023-02-21T14:58:43;95691.13;;;18.72;48.59
25526;BME280;13424;48.424;11.258;2023-02-21T15:01:38;95676.53;;;18.73;48.92
25526;BME280;13424;48.424;11.258;2023-02-21T15:08:14;95671.31;;;18.04;49.37
25526;BME280;13424;48.424;11.258;2023-02-21T15:10:49;95673.81;;;18.25;48.32
25526;BME280;13424;48.424;11.258;2023-02-21T15:13:34;95667.28;;;18.02;48.03
25526;BME280;13424;48.424;11.258;2023-02-21T15:16:04;95666.13;;;18.08;48.25
25526;BME280;13424;48.424;11.258;2023-02-21T15:18:36;95662.00;;;18.63;47.54
25526;BME280;13424;48.424;11.258;2023-02-21T15:23:59;95652.94;;;18.54;48.26
25526;BME280;13424;48.424;11.258;2023-02-21T15:26:28;95658.34;;;18.54;47.68
25526;BME280;13424;48.424;11.258;2023-02-21T15:29:16;95654.53;;;18.07;47.32
25526;BME280;13424;48.424;11.258;2023-02-21T15:31:51;95657.06;;;17.99;48.18
25526;BME280;13424;48.424;11.258;2023-02-21T15:34:25;95651.84;;;18.55;47.54
25526;BME280;13424;48.424;11.258;2023-02-21T15:37:20;95651.06;;;18.31;48.38
25526;BME280;13424;48.424;11.258;2023-02-21T15:39:52;95644.44;;;17.94;48.57
25526;BME280;13424;48.424;11.258;2023-02-21T15:42:20;95644.38;;;18.47;47.11
25526;BME280;13424;48.424;11.258;2023-02-21T15:44:52;95642.09;;;18.59;46.88
25526;BME280;13424;48.424;11.258;2023-02-21T15:47:22;95645.53;;;18.65;47.50
25526;BME280;13424;48.424;11.258;2023-02-21T15:52:48;95646.91;;;17.17;51.23
25526;BME280;13424;48.424;11.258;2023-02-21T15:58:03;95638.50;;;16.80;51.94
25526;BME280;13424;48.424;11.258;2023-02-21T16:00:42;95633.31;;;17.33;50.78
25526;BME280;13424;48.424;11.258;2023-02-21T16:03:34;95632.94;;;17.10;51.70
25526;BME280;13424;48.424;11.258;2023-02-21T16:06:29;95638.19;;;16.86;52.36